Current Weather

Wallops Flight Facility

Wallops Island, Virginia (KWAL)

Report from: Wednesday, April 24, 2024 1:54 PM EDT
Current time: Wednesday, April 24, 2024 2:27 PM EDT

Nearby weather – Weather history – Daily summaries
Weather forecast

Temperature18.9°C (66.0°F)
Dew point10.6°C (51.1°F)
Winds 9 kts (4.6 m/s, 10.4 mph) West (270°)
Visibility10 mi. (16.1 km)
Clouds Few clouds 6,000 ft. (1,829 m)
Few clouds 10,000 ft. (3,048 m)
Ceiling: Broken clouds 25,000 ft. (7,620 m)
Altimeter29.96 in.Hg (1015 mB)
Precip last 3 hoursTrace
Relative humidity59 %
Density altitude610 ft. (186 m)
Sea-level pressure101.4 kPa (1014 mB, 29.95 in.Hg)
Max temp last 6 hours19.4°C (66.9°F)
Min temp last 6 hours14.4°C (57.9°F)
Remarks Automated weather observing station with precipitation discriminator
Pressure rising more quickly
Flight conditions Visual Meteorological Conditions
Raw dataKWAL 241754Z 27009KT 10SM FEW060 FEW100 BKN250 19/11 A2996 RMK AO2 SLP141 60000 T01890106 10194 20144 53002
An error has occurred. This application may no longer respond until reloaded. Reload 🗙